createdAt,value
2024-03-16T00:02:15.023Z,43.70
2024-03-16T00:04:43.641Z,47.20
2024-03-16T00:07:09.857Z,53.40
2024-03-16T00:09:36.124Z,51.10
2024-03-16T00:12:02.530Z,50.30
2024-03-16T00:14:29.222Z,43.40
2024-03-16T00:16:55.915Z,50.10
2024-03-16T00:19:22.115Z,44.20
2024-03-16T00:21:48.408Z,50.40
2024-03-16T00:24:14.915Z,47.70
2024-03-16T00:26:41.511Z,47.70
2024-03-16T00:29:07.938Z,44.30
2024-03-16T00:31:34.378Z,46.00
2024-03-16T00:34:00.788Z,44.00
2024-03-16T00:36:27.260Z,49.70
2024-03-16T00:38:53.585Z,46.30
2024-03-16T00:41:20.570Z,46.70
2024-03-16T00:43:46.942Z,46.20
2024-03-16T00:46:13.668Z,43.90
2024-03-16T00:48:39.978Z,42.10
2024-03-16T00:51:06.374Z,35.70
2024-03-16T00:53:33.098Z,46.20
2024-03-16T00:55:59.520Z,44.70
2024-03-16T00:58:25.834Z,37.80
2024-03-16T01:00:52.554Z,53.40
2024-03-16T01:03:18.820Z,51.90
2024-03-16T01:05:46.876Z,54.70
2024-03-16T01:08:13.076Z,51.20
2024-03-16T01:10:39.762Z,53.30
2024-03-16T01:13:06.124Z,49.10
2024-03-16T01:15:33.203Z,41.70
2024-03-16T01:17:59.615Z,38.40
2024-03-16T01:20:28.347Z,47.20
2024-03-16T01:22:54.895Z,43.50
2024-03-16T01:25:21.302Z,50.50
2024-03-16T01:27:47.577Z,42.90
2024-03-16T01:30:15.784Z,42.10
2024-03-16T01:32:42.134Z,43.50
2024-03-16T01:35:10.229Z,43.80
2024-03-16T01:37:36.455Z,36.50
2024-03-16T01:40:02.823Z,40.90
2024-03-16T01:42:29.217Z,41.60
2024-03-16T01:44:55.533Z,37.00
2024-03-16T01:47:22.170Z,38.50
2024-03-16T01:49:48.447Z,42.20
2024-03-16T01:52:14.855Z,37.20
2024-03-16T01:54:41.054Z,36.10
2024-03-16T01:57:07.430Z,37.80
2024-03-16T01:59:34.439Z,36.50
2024-03-16T02:02:00.697Z,35.60
2024-03-16T02:04:26.925Z,31.00
2024-03-16T02:06:53.134Z,31.70
2024-03-16T02:09:20.166Z,30.30
2024-03-16T02:11:46.722Z,31.10
2024-03-16T02:14:13.327Z,33.50
2024-03-16T02:16:40.157Z,30.20
2024-03-16T02:19:07.933Z,29.20
2024-03-16T02:21:35.380Z,31.90
2024-03-16T02:24:01.626Z,25.80
2024-03-16T02:26:27.964Z,30.00
2024-03-16T02:28:54.202Z,30.70
2024-03-16T02:31:20.448Z,29.40
2024-03-16T02:33:46.731Z,31.30
2024-03-16T02:36:13.756Z,29.70
2024-03-16T02:38:40.860Z,34.90
2024-03-16T02:41:08.040Z,31.80
2024-03-16T02:43:34.649Z,34.00
2024-03-16T02:46:00.980Z,34.70
2024-03-16T02:48:27.517Z,29.40
2024-03-16T02:50:53.941Z,30.30
2024-03-16T02:53:20.153Z,30.10
2024-03-16T02:55:46.382Z,29.90
2024-03-16T02:58:13.568Z,29.80
2024-03-16T03:00:39.937Z,31.90
2024-03-16T03:03:07.606Z,35.10
2024-03-16T03:05:34.057Z,32.40
2024-03-16T03:08:00.179Z,28.90
2024-03-16T03:10:26.398Z,27.00
2024-03-16T03:12:52.733Z,28.10
2024-03-16T03:15:20.443Z,34.20
2024-03-16T03:17:46.871Z,32.40
2024-03-16T03:20:13.892Z,31.10
2024-03-16T03:22:40.307Z,30.10
2024-03-16T03:25:06.830Z,31.50
2024-03-16T03:27:34.296Z,32.70
2024-03-16T03:30:00.501Z,29.50
2024-03-16T03:32:27.052Z,33.10
2024-03-16T03:34:53.305Z,30.60
2024-03-16T03:37:21.327Z,33.10
2024-03-16T03:39:49.004Z,32.30
2024-03-16T03:42:15.363Z,29.30
2024-03-16T03:44:50.566Z,30.90
2024-03-16T03:47:16.848Z,28.80
2024-03-16T03:49:51.025Z,26.80
2024-03-16T03:52:17.681Z,29.40
2024-03-16T03:54:44.235Z,26.50
2024-03-16T03:57:11.339Z,23.20
2024-03-16T03:59:37.661Z,19.80
2024-03-16T04:02:03.991Z,23.70
2024-03-16T04:04:30.340Z,29.80
2024-03-16T04:06:56.722Z,33.20
2024-03-16T04:09:22.966Z,36.10
2024-03-16T04:11:49.321Z,33.80
2024-03-16T04:14:15.581Z,34.90
2024-03-16T04:16:41.792Z,39.70
2024-03-16T04:19:08.238Z,30.40
2024-03-16T04:21:34.647Z,34.40
2024-03-16T04:24:01.001Z,30.80
2024-03-16T04:26:27.584Z,36.90
2024-03-16T04:28:54.367Z,30.00
2024-03-16T04:31:20.587Z,29.70
2024-03-16T04:33:47.037Z,35.20
2024-03-16T04:36:14.473Z,34.10
2024-03-16T04:38:41.300Z,31.50
2024-03-16T04:41:07.830Z,27.50
2024-03-16T04:43:34.650Z,28.50
2024-03-16T04:46:00.947Z,29.70
2024-03-16T04:48:27.353Z,27.60
2024-03-16T04:50:53.649Z,29.60
2024-03-16T04:53:19.826Z,28.70
2024-03-16T04:55:46.198Z,33.40
2024-03-16T04:58:12.525Z,32.10
2024-03-16T05:00:39.177Z,29.30
2024-03-16T05:03:05.531Z,25.00
2024-03-16T05:05:31.840Z,27.30
2024-03-16T05:07:58.209Z,29.90
2024-03-16T05:10:25.421Z,24.20
2024-03-16T05:12:51.695Z,27.80
2024-03-16T05:15:17.915Z,32.10
2024-03-16T05:17:44.242Z,36.50
2024-03-16T05:20:11.150Z,29.80
2024-03-16T05:22:38.288Z,36.70
2024-03-16T05:25:05.875Z,35.90
2024-03-16T05:27:32.230Z,32.00
2024-03-16T05:29:58.715Z,27.90
2024-03-16T05:32:24.997Z,27.30
2024-03-16T05:34:51.391Z,24.90
2024-03-16T05:37:18.256Z,26.40
2024-03-16T05:39:44.523Z,25.20
2024-03-16T05:42:11.904Z,23.70
2024-03-16T05:44:38.339Z,26.20
2024-03-16T05:47:04.626Z,29.20
2024-03-16T05:49:30.786Z,24.70
2024-03-16T05:51:57.105Z,21.90
2024-03-16T05:54:23.374Z,18.40
2024-03-16T05:56:50.161Z,15.00
2024-03-16T05:59:16.399Z,17.40
2024-03-16T06:01:43.515Z,15.30
2024-03-16T06:04:10.020Z,16.50
2024-03-16T06:06:36.337Z,17.50
2024-03-16T06:09:04.170Z,14.90
2024-03-16T06:11:32.204Z,17.80
2024-03-16T06:13:58.596Z,19.90
2024-03-16T06:16:24.793Z,18.50
2024-03-16T06:18:51.091Z,15.70
2024-03-16T06:21:17.405Z,18.40
2024-03-16T06:23:43.916Z,17.70
2024-03-16T06:26:17.370Z,16.40
2024-03-16T06:28:47.331Z,16.70
2024-03-16T06:31:13.988Z,17.30
2024-03-16T06:33:45.944Z,18.10
2024-03-16T06:36:12.343Z,19.50
2024-03-16T06:38:38.524Z,18.20
2024-03-16T06:41:04.890Z,17.60
2024-03-16T06:43:31.053Z,19.60
2024-03-16T06:45:57.373Z,20.10
2024-03-16T06:48:23.669Z,17.50
2024-03-16T06:50:50.021Z,16.70
2024-03-16T06:53:16.340Z,14.40
2024-03-16T06:55:42.817Z,14.60
2024-03-16T06:58:10.634Z,16.40
2024-03-16T07:00:38.008Z,14.40
2024-03-16T07:03:05.147Z,17.40
2024-03-16T07:05:31.401Z,19.10
2024-03-16T07:07:58.321Z,18.40
2024-03-16T07:10:24.591Z,18.20
2024-03-16T07:12:50.854Z,20.50
2024-03-16T07:15:17.221Z,22.90
2024-03-16T07:17:43.544Z,20.10
2024-03-16T07:20:11.607Z,21.30
2024-03-16T07:22:38.904Z,20.10
2024-03-16T07:25:05.726Z,20.80
2024-03-16T07:27:32.732Z,19.30
2024-03-16T07:29:59.790Z,21.30
2024-03-16T07:32:26.737Z,24.00
2024-03-16T07:34:52.932Z,23.60
2024-03-16T07:37:19.228Z,25.00
2024-03-16T07:39:45.604Z,35.70
2024-03-16T07:42:11.784Z,31.20
2024-03-16T07:44:41.046Z,33.60
2024-03-16T07:47:07.251Z,38.00
2024-03-16T07:49:33.404Z,27.30
2024-03-16T07:52:00.399Z,18.00
2024-03-16T07:54:26.729Z,20.50
2024-03-16T07:56:52.997Z,19.60
2024-03-16T07:59:20.194Z,18.60
2024-03-16T08:01:46.469Z,18.70
2024-03-16T08:04:12.786Z,17.50
2024-03-16T08:06:39.270Z,18.90
2024-03-16T08:09:12.419Z,18.90
2024-03-16T08:11:38.804Z,18.20
2024-03-16T08:14:11.711Z,15.70
2024-03-16T08:16:37.921Z,17.60
2024-03-16T08:19:04.264Z,17.60
2024-03-16T08:21:30.845Z,17.40
2024-03-16T08:23:57.324Z,16.50
2024-03-16T08:26:23.674Z,15.40
2024-03-16T08:28:49.855Z,17.10
2024-03-16T08:31:16.359Z,16.70
2024-03-16T08:33:42.994Z,16.00
2024-03-16T08:36:09.218Z,18.20
2024-03-16T08:38:36.699Z,15.90
2024-03-16T08:41:06.059Z,17.30
2024-03-16T08:43:32.882Z,16.20
2024-03-16T08:45:59.160Z,16.50
2024-03-16T08:48:25.571Z,13.70
2024-03-16T08:50:51.915Z,16.00
2024-03-16T08:53:18.080Z,14.50
2024-03-16T08:55:44.863Z,13.50
2024-03-16T08:58:11.449Z,14.20
2024-03-16T09:00:37.722Z,15.40
2024-03-16T09:03:05.307Z,15.40
2024-03-16T09:05:31.647Z,15.70
2024-03-16T09:07:57.987Z,14.20
2024-03-16T09:10:24.219Z,16.00
2024-03-16T09:12:50.547Z,17.30
2024-03-16T09:15:16.989Z,16.40
2024-03-16T09:17:43.453Z,16.70
2024-03-16T09:20:10.613Z,16.10
2024-03-16T09:22:37.169Z,14.30
2024-03-16T09:25:06.756Z,18.10
2024-03-16T09:27:34.235Z,22.90
2024-03-16T09:30:00.569Z,17.50
2024-03-16T09:32:26.856Z,17.60
2024-03-16T09:34:53.174Z,16.60
2024-03-16T09:37:19.583Z,18.60
2024-03-16T09:39:45.823Z,16.20
2024-03-16T09:42:12.978Z,23.30
2024-03-16T09:44:39.242Z,21.90
2024-03-16T09:47:06.298Z,20.60
2024-03-16T09:49:35.801Z,22.90
2024-03-16T09:52:02.028Z,20.70
2024-03-16T09:54:28.637Z,22.80
2024-03-16T09:56:54.832Z,24.00
2024-03-16T09:59:30.500Z,25.20
2024-03-16T10:01:57.501Z,20.90
2024-03-16T10:04:23.749Z,16.80
2024-03-16T10:06:50.083Z,18.70
2024-03-16T10:09:16.474Z,15.90
2024-03-16T10:11:43.883Z,16.10
2024-03-16T10:14:10.526Z,16.30
2024-03-16T10:16:40.881Z,18.20
2024-03-16T10:19:07.200Z,16.50
2024-03-16T10:21:33.504Z,18.20
2024-03-16T10:23:59.806Z,17.30
2024-03-16T10:26:30.725Z,19.40
2024-03-16T10:28:57.078Z,18.80
2024-03-16T10:31:23.284Z,19.30
2024-03-16T10:33:49.570Z,18.40
2024-03-16T10:36:16.419Z,19.60
2024-03-16T10:38:42.794Z,20.30
2024-03-16T10:41:09.562Z,26.70
2024-03-16T10:43:36.356Z,20.00
2024-03-16T10:46:02.686Z,24.90
2024-03-16T10:48:29.191Z,24.20
2024-03-16T10:50:57.594Z,40.90
2024-03-16T10:53:25.955Z,61.50
2024-03-16T10:55:53.342Z,30.90
2024-03-16T10:58:20.390Z,20.30
2024-03-16T11:00:46.640Z,22.00
2024-03-16T11:03:12.989Z,25.80
2024-03-16T11:05:49.507Z,27.90
2024-03-16T11:08:15.785Z,45.50
2024-03-16T11:10:42.781Z,37.90
2024-03-16T11:13:09.182Z,22.00
2024-03-16T11:15:37.691Z,21.10
2024-03-16T11:18:04.342Z,18.70
2024-03-16T11:20:31.740Z,17.30
2024-03-16T11:22:57.971Z,21.80
2024-03-16T11:25:24.275Z,16.80
2024-03-16T11:27:50.704Z,17.80
2024-03-16T11:30:29.723Z,18.00
2024-03-16T11:33:00.752Z,16.90
2024-03-16T11:35:27.786Z,17.50
2024-03-16T11:37:54.152Z,14.90
2024-03-16T11:40:28.001Z,17.20
2024-03-16T11:42:54.395Z,16.80
2024-03-16T11:45:20.700Z,17.20
2024-03-16T11:47:46.932Z,16.80
2024-03-16T11:50:14.487Z,16.00
2024-03-16T11:52:40.788Z,16.00
2024-03-16T11:55:07.335Z,19.80
2024-03-16T11:57:34.028Z,16.20
2024-03-16T12:00:00.199Z,14.40
2024-03-16T12:02:26.393Z,15.60
2024-03-16T12:04:53.362Z,12.10
2024-03-16T12:07:19.474Z,15.80
2024-03-16T12:09:46.037Z,15.00
2024-03-16T12:12:12.271Z,15.20
2024-03-16T12:14:43.301Z,15.80
2024-03-16T12:17:10.182Z,15.20
2024-03-16T12:19:38.490Z,15.50
2024-03-16T12:22:06.928Z,14.60
2024-03-16T12:24:33.203Z,14.90
2024-03-16T12:26:59.408Z,14.80
2024-03-16T12:29:25.657Z,14.60
2024-03-16T12:31:57.048Z,16.00
2024-03-16T12:34:25.354Z,15.80
2024-03-16T12:36:55.034Z,15.30
2024-03-16T12:39:25.660Z,17.90
2024-03-16T12:41:51.920Z,14.50
2024-03-16T12:44:18.341Z,20.70
2024-03-16T12:46:47.394Z,17.40
2024-03-16T12:49:13.582Z,15.80
2024-03-16T12:51:39.907Z,16.10
2024-03-16T12:54:08.484Z,14.20
2024-03-16T12:56:41.247Z,14.10
2024-03-16T12:59:07.803Z,13.80
2024-03-16T13:01:34.493Z,15.00
2024-03-16T13:04:00.693Z,13.40
2024-03-16T13:06:27.896Z,10.60
2024-03-16T13:08:54.189Z,9.60
2024-03-16T13:11:25.618Z,14.10
2024-03-16T13:13:51.796Z,17.60
2024-03-16T13:16:18.428Z,15.70
2024-03-16T13:18:44.774Z,10.60
2024-03-16T13:21:14.073Z,11.50
2024-03-16T13:23:40.327Z,11.00
2024-03-16T13:26:06.481Z,8.80
2024-03-16T13:28:33.968Z,8.10
2024-03-16T13:31:00.201Z,12.30
2024-03-16T13:33:26.444Z,11.40
2024-03-16T13:35:54.563Z,10.80
2024-03-16T13:38:20.795Z,19.90
2024-03-16T13:40:47.071Z,10.00
2024-03-16T13:43:14.302Z,14.80
2024-03-16T13:45:40.973Z,10.80
2024-03-16T13:48:08.028Z,7.20
2024-03-16T13:50:34.173Z,7.00
2024-03-16T13:53:00.479Z,8.80
2024-03-16T13:55:28.183Z,17.50
2024-03-16T13:57:56.515Z,9.60
2024-03-16T14:00:23.050Z,8.50
2024-03-16T14:02:52.208Z,13.00
2024-03-16T14:05:19.759Z,12.60
2024-03-16T14:07:48.120Z,9.40
2024-03-16T14:10:18.523Z,8.80
2024-03-16T14:12:54.277Z,8.00
2024-03-16T14:15:20.529Z,6.80
2024-03-16T14:17:46.693Z,8.40
2024-03-16T14:20:19.256Z,7.70
2024-03-16T14:22:45.495Z,10.20
2024-03-16T14:25:12.110Z,7.70
2024-03-16T14:27:39.209Z,9.30
2024-03-16T14:30:13.851Z,9.00
2024-03-16T14:32:40.631Z,8.50
2024-03-16T14:35:09.948Z,7.70
2024-03-16T14:37:36.136Z,6.80
2024-03-16T14:40:10.399Z,8.00
2024-03-16T14:42:36.750Z,8.30
2024-03-16T14:45:02.984Z,7.80
2024-03-16T14:47:29.879Z,7.20
2024-03-16T14:49:56.995Z,8.70
2024-03-16T14:52:23.322Z,7.00
2024-03-16T14:54:49.676Z,7.70
2024-03-16T14:57:18.541Z,7.50
2024-03-16T14:59:45.440Z,6.80
2024-03-16T15:02:11.772Z,6.60
2024-03-16T15:04:38.231Z,6.70
2024-03-16T15:07:05.408Z,6.90
2024-03-16T15:09:31.604Z,7.70
2024-03-16T15:11:58.276Z,8.50
2024-03-16T15:14:24.442Z,11.40
2024-03-16T15:16:50.616Z,15.90
2024-03-16T15:19:16.840Z,13.60
2024-03-16T15:21:43.502Z,56.00
2024-03-16T15:24:09.832Z,18.00
2024-03-16T15:26:46.790Z,12.70
2024-03-16T15:29:13.082Z,10.70
2024-03-16T15:31:39.451Z,9.20
2024-03-16T15:34:05.695Z,7.80
2024-03-16T15:36:31.992Z,12.90
2024-03-16T15:38:59.904Z,9.00
2024-03-16T15:41:27.109Z,10.30
2024-03-16T15:43:53.687Z,10.30
2024-03-16T15:46:20.272Z,13.40
2024-03-16T15:48:46.819Z,11.70
2024-03-16T15:51:13.397Z,13.20
2024-03-16T15:53:40.686Z,12.30
2024-03-16T15:56:07.070Z,15.20
2024-03-16T15:58:33.494Z,15.80
2024-03-16T16:00:59.907Z,18.70
2024-03-16T16:03:26.385Z,22.00
2024-03-16T16:05:52.978Z,15.40
2024-03-16T16:11:10.780Z,38.10
2024-03-16T16:13:37.220Z,23.00
2024-03-16T16:16:03.715Z,13.30
2024-03-16T16:18:30.303Z,17.70
2024-03-16T16:20:56.757Z,16.60
2024-03-16T16:23:23.235Z,20.70
2024-03-16T16:25:49.528Z,15.30
2024-03-16T16:28:16.214Z,16.70
2024-03-16T16:30:42.706Z,23.00
2024-03-16T16:33:09.337Z,22.70
2024-03-16T16:35:37.494Z,24.70
2024-03-16T16:38:05.129Z,45.60
2024-03-16T16:40:31.734Z,37.40
2024-03-16T16:42:58.071Z,30.70
2024-03-16T16:45:24.758Z,26.20
2024-03-16T16:47:51.190Z,31.40
2024-03-16T16:50:17.579Z,18.30
2024-03-16T16:52:44.395Z,13.40
2024-03-16T16:55:11.175Z,10.10
2024-03-16T16:57:37.541Z,8.20
2024-03-16T17:00:10.329Z,8.70
2024-03-16T17:02:36.941Z,11.10
2024-03-16T17:05:03.249Z,13.00
2024-03-16T17:07:29.566Z,12.80
2024-03-16T17:09:56.337Z,10.00
2024-03-16T17:12:22.635Z,12.30
2024-03-16T17:14:48.960Z,13.80
2024-03-16T17:17:15.158Z,16.60
2024-03-16T17:19:41.359Z,30.20
2024-03-16T17:22:09.541Z,21.90
2024-03-16T17:24:35.939Z,15.50
2024-03-16T17:27:03.408Z,14.00
2024-03-16T17:29:34.318Z,17.80
2024-03-16T17:32:00.496Z,24.20
2024-03-16T17:34:26.799Z,35.30
2024-03-16T17:36:54.040Z,24.80
2024-03-16T17:39:23.841Z,24.40
2024-03-16T17:41:53.829Z,21.70
2024-03-16T17:44:20.344Z,17.10
2024-03-16T17:46:46.728Z,17.80
2024-03-16T17:49:13.081Z,16.50
2024-03-16T17:51:41.247Z,29.40
2024-03-16T17:54:08.352Z,30.10
2024-03-16T17:56:34.675Z,27.70
2024-03-16T17:59:01.770Z,28.70
2024-03-16T18:01:28.018Z,25.60
2024-03-16T18:03:54.489Z,26.70
2024-03-16T18:06:21.430Z,25.10
2024-03-16T18:08:47.937Z,20.40
2024-03-16T18:11:14.489Z,21.60
2024-03-16T18:13:40.734Z,21.10
2024-03-16T18:16:07.133Z,19.60
2024-03-16T18:18:33.417Z,32.00
2024-03-16T18:20:59.689Z,25.80
2024-03-16T18:23:26.751Z,19.40
2024-03-16T18:25:52.947Z,18.90
2024-03-16T18:28:20.365Z,22.50
2024-03-16T18:30:46.641Z,18.90
2024-03-16T18:33:13.334Z,23.50
2024-03-16T18:35:41.356Z,26.70
2024-03-16T18:38:07.663Z,29.50
2024-03-16T18:40:37.966Z,34.80
2024-03-16T18:43:07.784Z,44.30
2024-03-16T18:45:37.467Z,53.20
2024-03-16T18:48:04.231Z,45.70
2024-03-16T18:50:32.229Z,37.50
2024-03-16T18:52:58.679Z,32.10
2024-03-16T18:55:28.883Z,39.00
2024-03-16T18:58:01.023Z,52.10
2024-03-16T19:00:39.090Z,59.20
2024-03-16T19:03:06.159Z,57.60
2024-03-16T19:05:32.634Z,54.70
2024-03-16T19:07:59.071Z,35.80
2024-03-16T19:10:25.452Z,33.00
2024-03-16T19:12:51.919Z,33.50
2024-03-16T19:15:19.209Z,38.20
2024-03-16T19:17:53.114Z,35.10
2024-03-16T19:20:22.978Z,35.20
2024-03-16T19:22:49.752Z,37.80
2024-03-16T19:25:16.753Z,34.20
2024-03-16T19:27:43.066Z,30.00
2024-03-16T19:30:12.532Z,30.20
2024-03-16T19:32:39.949Z,41.60
2024-03-16T19:35:06.148Z,43.50
2024-03-16T19:37:32.859Z,59.70
2024-03-16T19:39:59.384Z,45.50
2024-03-16T19:42:26.671Z,43.90
2024-03-16T19:44:52.948Z,42.30
2024-03-16T19:47:19.192Z,43.40
2024-03-16T19:49:45.728Z,37.10
2024-03-16T19:52:12.050Z,43.50
2024-03-16T19:54:38.979Z,42.30
2024-03-16T19:57:05.427Z,35.30
2024-03-16T19:59:31.653Z,32.00
2024-03-16T20:01:57.891Z,39.30
2024-03-16T20:04:24.109Z,78.80
2024-03-16T20:06:55.379Z,80.70
2024-03-16T20:09:22.368Z,71.50
2024-03-16T20:11:49.029Z,83.90
2024-03-16T20:14:16.431Z,96.10
2024-03-16T20:16:42.707Z,105.00
2024-03-16T20:19:09.231Z,111.90
2024-03-16T20:21:36.301Z,95.40
2024-03-16T20:24:02.608Z,89.80
2024-03-16T20:26:29.164Z,87.90
2024-03-16T20:28:55.452Z,61.20
2024-03-16T20:31:21.623Z,56.20
2024-03-16T20:33:47.847Z,48.40
2024-03-16T20:36:14.371Z,42.20
2024-03-16T20:38:40.831Z,35.60
2024-03-16T20:41:11.791Z,32.70
2024-03-16T20:43:38.053Z,33.80
2024-03-16T20:46:04.268Z,31.50
2024-03-16T20:48:30.510Z,25.20
2024-03-16T20:50:56.916Z,23.00
2024-03-16T20:53:24.917Z,19.20
2024-03-16T20:55:53.099Z,13.40
2024-03-16T20:58:20.661Z,16.60
2024-03-16T21:00:47.303Z,19.00
2024-03-16T21:03:13.586Z,16.20
2024-03-16T21:05:40.095Z,10.20
2024-03-16T21:08:06.487Z,8.00
2024-03-16T21:10:33.160Z,9.20
2024-03-16T21:12:59.901Z,9.10
2024-03-16T21:15:26.333Z,10.50
2024-03-16T21:17:52.490Z,8.40
2024-03-16T21:20:20.261Z,9.90
2024-03-16T21:22:46.558Z,9.30
2024-03-16T21:25:12.769Z,10.40
2024-03-16T21:27:41.295Z,8.50
2024-03-16T21:30:10.536Z,8.40
2024-03-16T21:32:43.950Z,8.20
2024-03-16T21:35:13.808Z,10.10
2024-03-16T21:37:40.365Z,10.20
2024-03-16T21:40:07.729Z,7.60
2024-03-16T21:42:33.964Z,11.40
2024-03-16T21:45:00.381Z,9.70
2024-03-16T21:47:26.669Z,7.70
2024-03-16T21:49:52.872Z,8.00
2024-03-16T21:52:19.982Z,8.90
2024-03-16T21:54:46.226Z,10.50
2024-03-16T21:57:12.448Z,7.60
2024-03-16T21:59:38.720Z,7.50
2024-03-16T22:02:07.433Z,7.00
2024-03-16T22:04:33.693Z,7.00
2024-03-16T22:07:01.278Z,7.50
2024-03-16T22:09:27.707Z,7.60
2024-03-16T22:11:53.835Z,7.80
2024-03-16T22:14:20.156Z,9.20
2024-03-16T22:16:46.780Z,8.30
2024-03-16T22:19:13.279Z,8.70
2024-03-16T22:21:39.978Z,10.00
2024-03-16T22:24:08.180Z,9.60
2024-03-16T22:26:34.509Z,10.40
2024-03-16T22:29:00.771Z,7.70
2024-03-16T22:31:30.359Z,8.60
2024-03-16T22:33:56.627Z,17.80
2024-03-16T22:36:28.549Z,11.50
2024-03-16T22:38:55.475Z,8.50
2024-03-16T22:41:21.608Z,8.80
2024-03-16T22:43:48.145Z,8.80
2024-03-16T22:46:14.431Z,10.20
2024-03-16T22:48:40.636Z,12.10
2024-03-16T22:51:06.750Z,17.70
2024-03-16T22:53:33.272Z,13.50
2024-03-16T22:55:59.870Z,13.50
2024-03-16T22:58:26.233Z,15.20
2024-03-16T23:00:52.442Z,11.20
2024-03-16T23:03:18.941Z,9.30
2024-03-16T23:05:45.568Z,10.50
2024-03-16T23:08:11.800Z,9.10
2024-03-16T23:10:37.922Z,10.00
2024-03-16T23:13:04.355Z,15.10
2024-03-16T23:15:31.463Z,14.40
2024-03-16T23:17:58.922Z,13.00
2024-03-16T23:20:25.547Z,13.30
2024-03-16T23:22:51.787Z,12.30
2024-03-16T23:25:17.943Z,13.10
2024-03-16T23:27:44.468Z,10.80
2024-03-16T23:30:12.259Z,10.70
2024-03-16T23:32:39.256Z,9.10
2024-03-16T23:35:05.493Z,9.00
2024-03-16T23:37:33.985Z,9.20
2024-03-16T23:40:00.647Z,9.60
2024-03-16T23:42:29.245Z,9.70
2024-03-16T23:44:55.447Z,9.30
2024-03-16T23:47:24.274Z,7.40
2024-03-16T23:49:51.472Z,7.00
2024-03-16T23:52:17.821Z,8.20
2024-03-16T23:54:45.031Z,7.40
2024-03-16T23:57:11.163Z,7.30
2024-03-16T23:59:37.379Z,9.70
